createdAt,value
2017-10-08T00:00:13.726Z,1.70
2017-10-08T00:02:41.285Z,1.80
2017-10-08T00:05:08.789Z,1.30
2017-10-08T00:07:36.321Z,1.70
2017-10-08T00:10:04.606Z,1.83
2017-10-08T00:12:32.115Z,1.92
2017-10-08T00:14:59.627Z,1.20
2017-10-08T00:17:27.138Z,1.67
2017-10-08T00:19:54.669Z,1.40
2017-10-08T00:22:22.173Z,1.33
2017-10-08T00:24:49.687Z,1.33
2017-10-08T00:27:17.195Z,1.70
2017-10-08T00:29:45.498Z,1.40
2017-10-08T00:32:13.025Z,1.48
2017-10-08T00:34:40.550Z,1.52
2017-10-08T00:37:08.050Z,1.70
2017-10-08T00:39:35.602Z,1.62
2017-10-08T00:42:03.110Z,2.30
2017-10-08T00:44:30.634Z,1.65
2017-10-08T00:46:58.898Z,1.50
2017-10-08T00:49:26.417Z,1.48
2017-10-08T00:51:53.918Z,2.00
2017-10-08T00:54:21.450Z,1.40
2017-10-08T00:56:48.960Z,1.55
2017-10-08T00:59:17.266Z,1.70
2017-10-08T01:01:44.779Z,1.60
2017-10-08T01:04:13.066Z,1.73
2017-10-08T01:06:41.322Z,1.25
2017-10-08T01:09:08.822Z,1.98
2017-10-08T01:11:36.342Z,1.90
2017-10-08T01:14:03.834Z,2.20
2017-10-08T01:16:31.428Z,2.28
2017-10-08T01:18:59.018Z,2.90
2017-10-08T01:21:26.542Z,2.30
2017-10-08T01:23:54.070Z,2.00
2017-10-08T01:26:22.349Z,2.33
2017-10-08T01:28:49.851Z,1.77
2017-10-08T01:31:17.385Z,1.87
2017-10-08T01:33:44.891Z,1.30
2017-10-08T01:36:12.405Z,1.30
2017-10-08T01:38:39.922Z,0.85
2017-10-08T01:41:07.454Z,1.30
2017-10-08T01:43:34.993Z,1.27
2017-10-08T01:46:02.512Z,1.08
2017-10-08T01:48:30.788Z,0.70
2017-10-08T01:50:59.132Z,1.17
2017-10-08T01:53:26.634Z,1.30
2017-10-08T01:55:54.158Z,0.80
2017-10-08T01:58:21.654Z,0.77
2017-10-08T02:00:49.182Z,0.90
2017-10-08T02:03:16.690Z,0.90
2017-10-08T02:05:44.431Z,0.82
2017-10-08T02:08:12.698Z,0.90
2017-10-08T02:10:42.031Z,1.12
2017-10-08T02:13:09.533Z,1.10
2017-10-08T02:15:37.050Z,0.93
2017-10-08T02:18:04.554Z,1.05
2017-10-08T02:20:32.089Z,0.90
2017-10-08T02:22:59.590Z,1.10
2017-10-08T02:25:27.882Z,1.02
2017-10-08T02:27:55.398Z,1.05
2017-10-08T02:30:22.924Z,1.10
2017-10-08T02:32:50.431Z,0.90
2017-10-08T02:35:17.945Z,1.45
2017-10-08T02:37:45.444Z,0.85
2017-10-08T02:40:13.027Z,1.15
2017-10-08T02:42:41.388Z,0.80
2017-10-08T02:45:08.942Z,0.88
2017-10-08T02:47:36.455Z,0.73
2017-10-08T02:50:03.950Z,1.00
2017-10-08T02:52:31.474Z,0.90
2017-10-08T02:54:58.976Z,0.75
2017-10-08T02:57:26.499Z,0.70
2017-10-08T02:59:53.996Z,0.90
2017-10-08T03:02:21.511Z,0.80
2017-10-08T03:04:49.019Z,0.70
2017-10-08T03:07:16.532Z,0.90
2017-10-08T03:09:44.035Z,0.80
2017-10-08T03:12:11.627Z,0.70
2017-10-08T03:14:39.138Z,0.73
2017-10-08T03:17:06.664Z,0.95
2017-10-08T03:19:34.271Z,0.90
2017-10-08T03:22:01.781Z,0.88
2017-10-08T03:24:29.409Z,0.65
2017-10-08T03:26:57.697Z,0.80
2017-10-08T03:29:25.979Z,0.70
2017-10-08T03:31:54.270Z,0.77
2017-10-08T03:34:21.778Z,0.75
2017-10-08T03:36:49.289Z,0.85
2017-10-08T03:39:16.801Z,0.80
2017-10-08T03:41:44.310Z,0.60
2017-10-08T03:44:11.806Z,0.90
2017-10-08T03:46:39.331Z,0.70
2017-10-08T03:49:06.830Z,0.80
2017-10-08T03:51:35.110Z,0.60
2017-10-08T03:54:02.674Z,0.60
2017-10-08T03:56:30.194Z,0.80
2017-10-08T03:58:57.709Z,1.02
2017-10-08T04:01:26.055Z,0.82
2017-10-08T04:03:53.774Z,0.80
2017-10-08T04:06:21.290Z,0.80
2017-10-08T04:08:48.802Z,0.60
2017-10-08T04:11:16.397Z,0.90
2017-10-08T04:13:43.898Z,0.80
2017-10-08T04:16:11.428Z,0.60
2017-10-08T04:18:38.938Z,0.80
2017-10-08T04:21:06.474Z,0.75
2017-10-08T04:23:34.750Z,0.98
2017-10-08T04:26:03.026Z,0.70
2017-10-08T04:28:31.302Z,0.60
2017-10-08T04:30:59.587Z,0.70
2017-10-08T04:33:27.094Z,0.70
2017-10-08T04:35:54.623Z,0.73
2017-10-08T04:38:22.136Z,0.80
2017-10-08T04:40:49.657Z,0.80
2017-10-08T04:43:17.160Z,0.60
2017-10-08T04:45:44.677Z,0.70
2017-10-08T04:48:12.186Z,0.60
2017-10-08T04:50:40.463Z,0.70
2017-10-08T04:53:08.754Z,0.90
2017-10-08T04:55:37.025Z,0.80
2017-10-08T04:58:05.310Z,0.75
2017-10-08T05:00:32.802Z,0.80
2017-10-08T05:03:00.426Z,0.70
2017-10-08T05:05:27.936Z,1.12
2017-10-08T05:07:56.252Z,0.90
2017-10-08T05:10:23.754Z,0.70
2017-10-08T05:12:51.296Z,0.90
2017-10-08T05:15:18.896Z,0.73
2017-10-08T05:17:47.181Z,0.85
2017-10-08T05:20:14.746Z,1.15
2017-10-08T05:22:42.266Z,0.80
2017-10-08T05:25:09.759Z,0.90
2017-10-08T05:27:37.274Z,0.90
2017-10-08T05:30:04.804Z,0.80
2017-10-08T05:32:33.094Z,1.02
2017-10-08T05:35:00.661Z,1.58
2017-10-08T05:37:28.194Z,1.00
2017-10-08T05:39:55.690Z,0.93
2017-10-08T05:42:23.219Z,1.20
2017-10-08T05:44:50.742Z,1.08
2017-10-08T05:47:18.296Z,0.98
2017-10-08T05:49:46.593Z,1.20
2017-10-08T05:52:14.270Z,1.30
2017-10-08T05:54:41.769Z,1.05
2017-10-08T05:57:09.298Z,1.20
2017-10-08T05:59:36.798Z,1.02
2017-10-08T06:02:04.322Z,1.35
2017-10-08T06:04:31.831Z,1.30
2017-10-08T06:06:59.365Z,1.25
2017-10-08T06:09:26.874Z,1.00
2017-10-08T06:11:55.167Z,1.10
2017-10-08T06:14:22.676Z,1.45
2017-10-08T06:16:50.190Z,1.15
2017-10-08T06:19:17.706Z,1.10
2017-10-08T06:21:45.206Z,1.00
2017-10-08T06:24:12.734Z,0.95
2017-10-08T06:26:41.029Z,1.10
2017-10-08T06:29:08.556Z,1.10
2017-10-08T06:31:36.107Z,1.05
2017-10-08T06:34:03.667Z,1.27
2017-10-08T06:36:31.186Z,1.20
2017-10-08T06:38:58.699Z,0.80
2017-10-08T06:41:26.201Z,0.95
2017-10-08T06:43:53.716Z,0.85
2017-10-08T06:46:21.218Z,1.10
2017-10-08T06:48:48.735Z,1.05
2017-10-08T06:51:16.234Z,1.15
2017-10-08T06:53:43.765Z,1.33
2017-10-08T06:56:11.254Z,1.15
2017-10-08T06:58:38.801Z,1.00
2017-10-08T07:01:06.361Z,1.10
2017-10-08T07:03:33.888Z,0.80
2017-10-08T07:06:01.417Z,0.75
2017-10-08T07:08:29.737Z,1.20
2017-10-08T07:10:57.229Z,1.30
2017-10-08T07:13:24.778Z,1.00
2017-10-08T07:15:52.270Z,1.02
2017-10-08T07:18:20.549Z,1.48
2017-10-08T07:20:48.075Z,1.00
2017-10-08T07:23:15.574Z,1.02
2017-10-08T07:25:43.085Z,1.23
2017-10-08T07:28:11.366Z,1.33
2017-10-08T07:30:39.642Z,1.45
2017-10-08T07:33:07.139Z,1.30
2017-10-08T07:35:34.738Z,1.37
2017-10-08T07:38:02.250Z,1.10
2017-10-08T07:40:29.779Z,0.95
2017-10-08T07:42:59.057Z,1.00
2017-10-08T07:45:26.593Z,1.00
2017-10-08T07:47:54.110Z,1.05
2017-10-08T07:50:21.633Z,1.10
2017-10-08T07:52:49.129Z,1.33
2017-10-08T07:55:16.702Z,1.15
2017-10-08T07:57:44.206Z,1.00
2017-10-08T08:00:11.748Z,0.70
2017-10-08T08:02:39.251Z,0.90
2017-10-08T08:05:07.539Z,0.70
2017-10-08T08:07:35.055Z,1.00
2017-10-08T08:10:02.579Z,1.05
2017-10-08T08:12:30.082Z,0.90
2017-10-08T08:14:57.597Z,0.90
2017-10-08T08:17:25.098Z,1.25
2017-10-08T08:19:52.595Z,1.00
2017-10-08T08:22:20.113Z,1.10
2017-10-08T08:24:47.617Z,1.00
2017-10-08T08:27:15.128Z,0.80
2017-10-08T08:29:42.630Z,0.90
2017-10-08T08:32:10.143Z,1.17
2017-10-08T08:34:37.645Z,0.73
2017-10-08T08:37:05.192Z,0.85
2017-10-08T08:39:33.466Z,0.90
2017-10-08T08:42:00.992Z,1.08
2017-10-08T08:44:31.535Z,0.90
2017-10-08T08:46:59.102Z,0.80
2017-10-08T08:49:26.613Z,0.98
2017-10-08T08:51:54.125Z,0.80
2017-10-08T08:54:22.466Z,1.10
2017-10-08T08:56:49.981Z,1.00
2017-10-08T08:59:17.505Z,1.00
2017-10-08T09:01:45.026Z,1.27
2017-10-08T09:04:12.550Z,0.90
2017-10-08T09:06:40.839Z,1.00
2017-10-08T09:09:08.349Z,0.93
2017-10-08T09:11:35.873Z,0.90
2017-10-08T09:14:03.381Z,0.88
2017-10-08T09:16:31.033Z,0.90
2017-10-08T09:18:58.589Z,0.90
2017-10-08T09:21:26.131Z,0.80
2017-10-08T09:23:54.398Z,1.33
2017-10-08T09:26:22.672Z,0.70
2017-10-08T09:28:50.212Z,0.90
2017-10-08T09:31:17.710Z,1.00
2017-10-08T09:33:45.240Z,0.90
2017-10-08T09:36:12.976Z,0.98
2017-10-08T09:38:40.526Z,0.98
2017-10-08T09:41:08.030Z,1.05
2017-10-08T09:43:36.345Z,0.93
2017-10-08T09:46:03.883Z,1.10
2017-10-08T09:48:32.180Z,0.90
2017-10-08T09:50:59.725Z,1.27
2017-10-08T09:53:28.033Z,1.10
2017-10-08T09:55:55.546Z,1.10
2017-10-08T09:58:23.870Z,1.35
2017-10-08T10:00:51.452Z,1.30
2017-10-08T10:03:18.994Z,3.60
2017-10-08T10:05:46.519Z,3.97
2017-10-08T10:08:14.795Z,5.87
2017-10-08T10:10:42.314Z,5.97
2017-10-08T10:13:09.844Z,4.32
2017-10-08T10:15:37.354Z,17.20
2017-10-08T10:18:05.642Z,13.73
2017-10-08T10:20:33.161Z,10.90
2017-10-08T10:23:00.735Z,4.20
2017-10-08T10:25:28.282Z,1.75
2017-10-08T10:27:55.786Z,1.20
2017-10-08T10:30:24.063Z,0.93
2017-10-08T10:32:52.356Z,1.10
2017-10-08T10:35:19.881Z,0.90
2017-10-08T10:37:47.391Z,1.00
2017-10-08T10:40:14.919Z,0.77
2017-10-08T10:42:43.192Z,0.93
2017-10-08T10:45:11.473Z,0.90
2017-10-08T10:47:39.025Z,0.80
2017-10-08T10:50:07.306Z,0.90
2017-10-08T10:52:35.584Z,0.88
2017-10-08T10:55:03.886Z,1.10
2017-10-08T10:57:31.381Z,1.00
2017-10-08T10:59:58.906Z,1.10
2017-10-08T11:02:26.470Z,0.73
2017-10-08T11:04:54.025Z,1.20
2017-10-08T11:07:21.541Z,0.90
2017-10-08T11:09:49.066Z,0.90
2017-10-08T11:12:16.569Z,1.00
2017-10-08T11:14:44.863Z,0.90
2017-10-08T11:17:12.402Z,1.05
2017-10-08T11:19:40.700Z,1.23
2017-10-08T11:22:08.222Z,1.05
2017-10-08T11:24:35.763Z,1.10
2017-10-08T11:27:03.266Z,1.05
2017-10-08T11:29:31.561Z,0.90
2017-10-08T11:31:59.089Z,0.90
2017-10-08T11:34:27.362Z,0.98
2017-10-08T11:36:55.654Z,0.93
2017-10-08T11:39:23.162Z,1.00
2017-10-08T11:41:50.693Z,0.93
2017-10-08T11:44:18.193Z,1.00
2017-10-08T11:46:45.754Z,1.10
2017-10-08T11:49:13.245Z,1.10
2017-10-08T11:51:40.769Z,1.10
2017-10-08T11:54:08.837Z,0.90
2017-10-08T11:56:36.356Z,1.25
2017-10-08T11:59:03.862Z,0.98
2017-10-08T12:01:31.383Z,1.00
2017-10-08T12:03:58.904Z,1.00
2017-10-08T12:06:27.208Z,0.90
2017-10-08T12:08:54.710Z,1.20
2017-10-08T12:11:22.230Z,0.98
2017-10-08T12:13:49.734Z,0.90
2017-10-08T12:16:17.258Z,0.95
2017-10-08T12:18:44.765Z,0.90
2017-10-08T12:21:12.281Z,2.70
2017-10-08T12:26:35.249Z,9.00
2017-10-08T12:29:04.012Z,3.90
2017-10-08T12:31:32.607Z,2.20
2017-10-08T12:34:02.188Z,2.03
2017-10-08T12:36:29.733Z,5.80
2017-10-08T12:39:01.069Z,12.77
2017-10-08T12:41:30.586Z,21.67
2017-10-08T12:43:58.203Z,20.25
2017-10-08T12:49:23.672Z,5.75
2017-10-08T12:51:52.033Z,2.92
2017-10-08T12:54:20.344Z,1.90
2017-10-08T12:56:54.729Z,1.45
2017-10-08T12:59:31.597Z,1.20
2017-10-08T13:01:59.905Z,1.20
2017-10-08T13:04:27.452Z,1.10
2017-10-08T13:06:58.317Z,1.00
2017-10-08T13:09:25.864Z,1.33
2017-10-08T13:11:53.397Z,1.23
2017-10-08T13:14:22.753Z,1.30
2017-10-08T13:17:03.613Z,1.15
2017-10-08T13:19:33.138Z,1.60
2017-10-08T13:22:17.637Z,1.30
2017-10-08T13:24:51.202Z,1.45
2017-10-08T13:27:18.820Z,0.90
2017-10-08T13:29:46.388Z,1.40
2017-10-08T13:32:13.932Z,1.12
2017-10-08T13:34:42.261Z,0.93
2017-10-08T13:37:09.805Z,1.23
2017-10-08T13:39:39.007Z,1.00
2017-10-08T13:42:18.085Z,1.08
2017-10-08T13:44:45.676Z,0.90
2017-10-08T13:47:13.557Z,1.30
2017-10-08T13:49:41.892Z,1.48
2017-10-08T13:52:09.449Z,1.27
2017-10-08T13:54:37.153Z,1.08
2017-10-08T13:59:57.571Z,1.10
2017-10-08T14:02:25.153Z,1.15
2017-10-08T14:04:52.721Z,1.05
2017-10-08T14:07:20.285Z,1.10
2017-10-08T14:10:05.008Z,0.80
2017-10-08T14:12:32.549Z,0.70
2017-10-08T14:15:06.905Z,1.10
2017-10-08T14:17:34.445Z,0.77
2017-10-08T14:20:07.901Z,0.80
2017-10-08T14:22:35.443Z,1.20
2017-10-08T14:25:03.005Z,1.00
2017-10-08T14:27:30.542Z,1.10
2017-10-08T14:29:58.088Z,0.90
2017-10-08T14:32:25.617Z,0.93
2017-10-08T14:34:53.236Z,1.00
2017-10-08T14:37:20.852Z,1.12
2017-10-08T14:39:56.133Z,1.00
2017-10-08T14:42:23.681Z,1.40
2017-10-08T14:44:51.232Z,1.50
2017-10-08T14:47:23.590Z,1.15
2017-10-08T14:49:51.173Z,1.42
2017-10-08T14:52:18.709Z,1.15
2017-10-08T14:54:50.225Z,1.30
2017-10-08T14:57:17.802Z,1.25
2017-10-08T14:59:45.410Z,1.30
2017-10-08T15:02:22.611Z,0.90
2017-10-08T15:04:50.151Z,1.30
2017-10-08T15:07:17.653Z,1.35
2017-10-08T15:09:45.154Z,1.20
2017-10-08T15:12:12.671Z,1.90
2017-10-08T15:14:40.195Z,1.33
2017-10-08T15:17:07.710Z,1.30
2017-10-08T15:19:35.970Z,1.30
2017-10-08T15:22:03.487Z,1.05
2017-10-08T15:24:30.994Z,1.35
2017-10-08T15:26:58.511Z,1.08
2017-10-08T15:29:26.005Z,1.37
2017-10-08T15:31:53.516Z,0.93
2017-10-08T15:34:21.020Z,1.27
2017-10-08T15:36:48.531Z,1.05
2017-10-08T15:39:16.037Z,1.00
2017-10-08T15:41:43.554Z,1.23
2017-10-08T15:44:11.053Z,1.10
2017-10-08T15:46:38.570Z,1.00
2017-10-08T15:49:06.084Z,1.10
2017-10-08T15:51:33.603Z,0.98
2017-10-08T15:54:01.100Z,1.20
2017-10-08T15:56:28.614Z,1.20
2017-10-08T15:58:56.106Z,1.20
2017-10-08T16:01:23.643Z,1.00
2017-10-08T16:03:51.146Z,1.27
2017-10-08T16:06:18.662Z,1.20
2017-10-08T16:08:46.181Z,1.05
2017-10-08T16:11:13.697Z,1.15
2017-10-08T16:13:41.220Z,1.00
2017-10-08T16:16:08.751Z,1.10
2017-10-08T16:18:37.034Z,1.20
2017-10-08T16:21:05.336Z,1.50
2017-10-08T16:23:32.842Z,1.50
2017-10-08T16:26:00.349Z,1.10
2017-10-08T16:28:27.886Z,1.35
2017-10-08T16:30:55.442Z,1.40
2017-10-08T16:33:22.978Z,1.40
2017-10-08T16:35:50.593Z,1.25
2017-10-08T16:38:18.123Z,1.80
2017-10-08T16:40:46.395Z,1.70
2017-10-08T16:43:14.679Z,1.80
2017-10-08T16:45:42.946Z,1.87
2017-10-08T16:48:11.231Z,1.40
2017-10-08T16:50:39.510Z,2.05
2017-10-08T16:53:07.034Z,2.70
2017-10-08T16:55:34.535Z,3.12
2017-10-08T16:58:02.054Z,2.90
2017-10-08T17:00:29.563Z,5.18
2017-10-08T17:02:57.098Z,9.05
2017-10-08T17:05:24.633Z,12.13
2017-10-08T17:07:52.176Z,11.68
2017-10-08T17:10:19.783Z,7.45
2017-10-08T17:12:48.054Z,4.90
2017-10-08T17:15:16.342Z,3.20
2017-10-08T17:17:43.876Z,3.80
2017-10-08T17:20:11.398Z,4.05
2017-10-08T17:22:38.910Z,4.22
2017-10-08T17:25:07.212Z,4.00
2017-10-08T17:27:34.714Z,2.87
2017-10-08T17:30:02.235Z,2.87
2017-10-08T17:32:29.738Z,2.85
2017-10-08T17:34:57.255Z,2.90
2017-10-08T17:37:24.777Z,2.70
2017-10-08T17:39:53.078Z,2.85
2017-10-08T17:42:20.583Z,2.20
2017-10-08T17:44:48.115Z,2.03
2017-10-08T17:47:15.622Z,2.50
2017-10-08T17:49:43.138Z,2.50
2017-10-08T17:52:10.642Z,2.12
2017-10-08T17:54:38.926Z,2.40
2017-10-08T17:57:07.199Z,2.97
2017-10-08T17:59:34.730Z,2.60
2017-10-08T18:02:02.226Z,2.25
2017-10-08T18:04:30.505Z,2.30
2017-10-08T18:06:58.774Z,2.20
2017-10-08T18:09:27.074Z,1.98
2017-10-08T18:11:54.682Z,2.25
2017-10-08T18:14:22.179Z,1.92
2017-10-08T18:16:50.464Z,2.40
2017-10-08T18:19:18.736Z,2.08
2017-10-08T18:21:46.275Z,2.05
2017-10-08T18:24:13.783Z,2.47
2017-10-08T18:26:41.294Z,2.28
2017-10-08T18:29:11.863Z,2.15
2017-10-08T18:31:39.495Z,2.30
2017-10-08T18:34:07.770Z,2.25
2017-10-08T18:36:36.043Z,2.35
2017-10-08T18:39:04.315Z,2.58
2017-10-08T18:41:31.842Z,2.67
2017-10-08T18:43:59.431Z,2.28
2017-10-08T18:46:26.964Z,2.60
2017-10-08T18:48:54.462Z,2.75
2017-10-08T18:51:22.759Z,2.97
2017-10-08T18:53:50.267Z,2.65
2017-10-08T18:56:17.775Z,2.80
2017-10-08T18:58:46.061Z,2.17
2017-10-08T19:01:13.603Z,2.72
2017-10-08T19:03:41.122Z,2.30
2017-10-08T19:06:08.642Z,2.22
2017-10-08T19:08:36.164Z,2.78
2017-10-08T19:11:03.698Z,2.28
2017-10-08T19:13:31.222Z,2.45
2017-10-08T19:15:58.741Z,2.37
2017-10-08T19:18:26.281Z,2.10
2017-10-08T19:20:53.786Z,2.28
2017-10-08T19:23:22.129Z,2.12
2017-10-08T19:25:49.658Z,2.40
2017-10-08T19:28:17.183Z,2.67
2017-10-08T19:30:45.464Z,2.30
2017-10-08T19:33:13.014Z,2.40
2017-10-08T19:35:41.285Z,2.55
2017-10-08T19:38:09.572Z,2.58
2017-10-08T19:40:37.844Z,2.33
2017-10-08T19:43:06.176Z,1.92
2017-10-08T19:45:33.683Z,2.65
2017-10-08T19:48:01.990Z,2.33
2017-10-08T19:50:29.486Z,2.50
2017-10-08T19:52:57.001Z,2.30
2017-10-08T19:55:24.536Z,2.28
2017-10-08T19:57:52.806Z,2.72
2017-10-08T20:00:21.109Z,2.35
2017-10-08T20:02:48.622Z,2.65
2017-10-08T20:05:16.145Z,2.70
2017-10-08T20:07:43.659Z,2.83
2017-10-08T20:10:11.183Z,2.67
2017-10-08T20:12:38.692Z,2.80
2017-10-08T20:15:06.773Z,2.55
2017-10-08T20:17:34.308Z,2.58
2017-10-08T20:20:01.829Z,2.72
2017-10-08T20:22:29.582Z,2.80
2017-10-08T20:24:57.136Z,2.45
2017-10-08T20:27:24.685Z,2.58
2017-10-08T20:29:53.064Z,2.60
2017-10-08T20:32:20.576Z,2.17
2017-10-08T20:34:48.264Z,2.53
2017-10-08T20:37:16.602Z,2.90
2017-10-08T20:39:44.130Z,2.20
2017-10-08T20:42:11.638Z,2.65
2017-10-08T20:44:40.139Z,3.03
2017-10-08T20:47:08.406Z,2.83
2017-10-08T20:49:36.300Z,2.33
2017-10-08T20:52:03.820Z,2.25
2017-10-08T20:54:31.522Z,2.87
2017-10-08T20:56:59.287Z,3.00
2017-10-08T20:59:26.809Z,2.80
2017-10-08T21:01:54.511Z,3.15
2017-10-08T21:04:23.031Z,2.90
2017-10-08T21:06:50.547Z,2.47
2017-10-08T21:09:18.862Z,2.75
2017-10-08T21:11:46.419Z,2.72
2017-10-08T21:14:13.929Z,2.60
2017-10-08T21:16:42.223Z,2.90
2017-10-08T21:19:09.722Z,3.25
2017-10-08T21:21:37.234Z,3.17
2017-10-08T21:24:05.503Z,3.53
2017-10-08T21:26:33.798Z,2.30
2017-10-08T21:29:01.296Z,2.40
2017-10-08T21:31:28.820Z,2.90
2017-10-08T21:33:56.328Z,2.75
2017-10-08T21:36:24.831Z,2.42
2017-10-08T21:38:52.331Z,2.90
2017-10-08T21:41:19.847Z,2.50
2017-10-08T21:43:47.355Z,2.80
2017-10-08T21:46:14.882Z,2.97
2017-10-08T21:48:43.158Z,2.87
2017-10-08T21:51:11.447Z,2.40
2017-10-08T21:53:38.947Z,2.72
2017-10-08T21:56:06.498Z,2.90
2017-10-08T21:58:34.005Z,3.20
2017-10-08T22:01:02.271Z,3.33
2017-10-08T22:03:29.795Z,2.83
2017-10-08T22:05:57.299Z,2.78
2017-10-08T22:08:25.622Z,2.90
2017-10-08T22:10:53.119Z,2.83
2017-10-08T22:13:20.645Z,2.75
2017-10-08T22:15:48.146Z,2.80
2017-10-08T22:18:15.660Z,3.22
2017-10-08T22:20:43.163Z,2.85
2017-10-08T22:23:10.684Z,2.78
2017-10-08T22:25:38.178Z,2.80
2017-10-08T22:28:05.704Z,3.00
2017-10-08T22:30:33.214Z,3.00
2017-10-08T22:33:01.497Z,2.72
2017-10-08T22:35:29.772Z,2.30
2017-10-08T22:37:58.058Z,3.05
2017-10-08T22:40:25.555Z,2.53
2017-10-08T22:42:53.080Z,2.97
2017-10-08T22:45:20.578Z,2.50
2017-10-08T22:47:48.128Z,3.28
2017-10-08T22:50:15.628Z,3.10
2017-10-08T22:52:43.158Z,3.17
2017-10-08T22:55:10.662Z,2.92
2017-10-08T22:57:38.958Z,2.90
2017-10-08T23:00:06.467Z,3.33
2017-10-08T23:02:33.992Z,2.75
2017-10-08T23:05:01.498Z,3.30
2017-10-08T23:07:28.999Z,3.40
2017-10-08T23:09:56.522Z,2.70
2017-10-08T23:12:24.794Z,2.60
2017-10-08T23:14:52.321Z,2.60
2017-10-08T23:17:19.830Z,2.72
2017-10-08T23:19:48.115Z,2.30
2017-10-08T23:22:15.614Z,2.80
2017-10-08T23:24:43.135Z,2.72
2017-10-08T23:27:10.638Z,2.53
2017-10-08T23:29:38.205Z,2.45
2017-10-08T23:32:05.731Z,2.70
2017-10-08T23:34:33.264Z,2.62
2017-10-08T23:37:01.595Z,2.62
2017-10-08T23:39:29.128Z,2.20
2017-10-08T23:41:56.647Z,2.40
2017-10-08T23:44:24.939Z,2.60
2017-10-08T23:46:52.447Z,2.37
2017-10-08T23:49:19.970Z,3.05
2017-10-08T23:51:47.491Z,3.03
2017-10-08T23:54:15.016Z,2.70
2017-10-08T23:56:42.523Z,2.75
2017-10-08T23:59:10.044Z,2.75
